sensor_id;sensor_type;location;lat;lon;timestamp;pressure;altitude;pressure_sealevel;temperature;humidity
38197;BME280;26543;51.976;4.616;2023-07-13T00:01:49;52492.31;;;-140.72;100.00
38197;BME280;26543;51.976;4.616;2023-07-13T00:04:16;52512.59;;;-140.72;100.00
38197;BME280;26543;51.976;4.616;2023-07-13T00:06:41;52502.47;;;-140.72;100.00
38197;BME280;26543;51.976;4.616;2023-07-13T00:09:10;52488.25;;;-140.72;100.00
38197;BME280;26543;51.976;4.616;2023-07-13T00:11:35;52526.81;;;-140.72;100.00
38197;BME280;26543;51.976;4.616;2023-07-13T00:14:00;52504.50;;;-140.72;100.00
38197;BME280;26543;51.976;4.616;2023-07-13T00:16:26;52539.00;;;-140.72;100.00
38197;BME280;26543;51.976;4.616;2023-07-13T00:18:51;52498.41;;;-140.72;100.00
38197;BME280;26543;51.976;4.616;2023-07-13T00:21:17;52502.47;;;-140.72;100.00
38197;BME280;26543;51.976;4.616;2023-07-13T00:23:43;52530.88;;;-140.72;100.00
38197;BME280;26543;51.976;4.616;2023-07-13T00:26:09;52539.00;;;-140.72;100.00
38197;BME280;26543;51.976;4.616;2023-07-13T00:28:35;52510.59;;;-140.72;100.00
38197;BME280;26543;51.976;4.616;2023-07-13T00:31:00;52480.16;;;-140.72;100.00
38197;BME280;26543;51.976;4.616;2023-07-13T00:33:27;52498.41;;;-140.72;100.00
38197;BME280;26543;51.976;4.616;2023-07-13T00:35:53;52480.16;;;-140.72;100.00
38197;BME280;26543;51.976;4.616;2023-07-13T00:38:19;52472.03;;;-140.72;100.00
38197;BME280;26543;51.976;4.616;2023-07-13T00:40:44;52514.63;;;-140.72;100.00
38197;BME280;26543;51.976;4.616;2023-07-13T00:43:22;52526.81;;;-140.72;100.00
38197;BME280;26543;51.976;4.616;2023-07-13T00:48:14;52551.16;;;-140.72;100.00
38197;BME280;26543;51.976;4.616;2023-07-13T00:50:40;52520.72;;;-140.72;100.00
38197;BME280;26543;51.976;4.616;2023-07-13T00:53:06;52516.66;;;-140.72;100.00
38197;BME280;26543;51.976;4.616;2023-07-13T00:55:32;52545.06;;;-140.72;100.00
38197;BME280;26543;51.976;4.616;2023-07-13T00:57:58;52549.13;;;-140.72;100.00
38197;BME280;26543;51.976;4.616;2023-07-13T01:00:24;52472.03;;;-140.72;100.00
38197;BME280;26543;51.976;4.616;2023-07-13T01:02:51;52512.59;;;-140.72;100.00
38197;BME280;26543;51.976;4.616;2023-07-13T01:05:17;52518.69;;;-140.72;100.00
38197;BME280;26543;51.976;4.616;2023-07-13T01:07:43;52504.50;;;-140.72;100.00
38197;BME280;26543;51.976;4.616;2023-07-13T01:10:09;52543.03;;;-140.72;100.00
38197;BME280;26543;51.976;4.616;2023-07-13T01:12:35;52486.22;;;-140.72;100.00
38197;BME280;26543;51.976;4.616;2023-07-13T01:15:01;52510.59;;;-140.72;100.00
38197;BME280;26543;51.976;4.616;2023-07-13T01:17:27;52534.94;;;-140.72;100.00
38197;BME280;26543;51.976;4.616;2023-07-13T01:19:53;52520.72;;;-140.72;100.00
38197;BME280;26543;51.976;4.616;2023-07-13T01:22:18;52504.50;;;-140.72;100.00
38197;BME280;26543;51.976;4.616;2023-07-13T01:24:46;52532.91;;;-140.72;100.00
38197;BME280;26543;51.976;4.616;2023-07-13T01:27:13;52500.44;;;-140.72;100.00
38197;BME280;26543;51.976;4.616;2023-07-13T01:29:43;52498.41;;;-140.72;100.00
38197;BME280;26543;51.976;4.616;2023-07-13T01:32:09;52526.81;;;-140.72;100.00
38197;BME280;26543;51.976;4.616;2023-07-13T01:34:34;52506.53;;;-140.72;100.00
38197;BME280;26543;51.976;4.616;2023-07-13T01:37:00;52553.19;;;-140.72;100.00
38197;BME280;26543;51.976;4.616;2023-07-13T01:39:25;52532.91;;;-140.72;100.00
38197;BME280;26543;51.976;4.616;2023-07-13T01:41:50;52518.69;;;-140.72;100.00
38197;BME280;26543;51.976;4.616;2023-07-13T01:44:16;52504.50;;;-140.72;100.00
38197;BME280;26543;51.976;4.616;2023-07-13T01:46:41;52536.97;;;-140.72;100.00
38197;BME280;26543;51.976;4.616;2023-07-13T01:49:06;52524.78;;;-140.72;100.00
38197;BME280;26543;51.976;4.616;2023-07-13T01:51:31;52496.38;;;-140.72;100.00
38197;BME280;26543;51.976;4.616;2023-07-13T01:53:57;52530.88;;;-140.72;100.00
38197;BME280;26543;51.976;4.616;2023-07-13T01:56:22;52522.75;;;-140.72;100.00
38197;BME280;26543;51.976;4.616;2023-07-13T01:58:47;52518.69;;;-140.72;100.00
38197;BME280;26543;51.976;4.616;2023-07-13T02:01:13;52520.72;;;-140.72;100.00
38197;BME280;26543;51.976;4.616;2023-07-13T02:03:38;52528.84;;;-140.72;100.00
38197;BME280;26543;51.976;4.616;2023-07-13T02:06:06;52530.88;;;-140.72;100.00
38197;BME280;26543;51.976;4.616;2023-07-13T02:08:34;52532.91;;;-140.72;100.00
38197;BME280;26543;51.976;4.616;2023-07-13T02:11:00;52500.44;;;-140.72;100.00
38197;BME280;26543;51.976;4.616;2023-07-13T02:13:27;52555.22;;;-140.72;100.00
38197;BME280;26543;51.976;4.616;2023-07-13T02:15:52;52539.00;;;-140.72;100.00
38197;BME280;26543;51.976;4.616;2023-07-13T02:18:18;52567.41;;;-140.72;100.00
38197;BME280;26543;51.976;4.616;2023-07-13T02:20:43;52567.41;;;-140.72;100.00
38197;BME280;26543;51.976;4.616;2023-07-13T02:23:08;52551.16;;;-140.72;100.00
38197;BME280;26543;51.976;4.616;2023-07-13T02:25:34;52565.38;;;-140.72;100.00
38197;BME280;26543;51.976;4.616;2023-07-13T02:27:59;52541.03;;;-140.72;100.00
38197;BME280;26543;51.976;4.616;2023-07-13T02:30:24;52541.03;;;-140.72;100.00
38197;BME280;26543;51.976;4.616;2023-07-13T02:32:50;52549.13;;;-140.72;100.00
38197;BME280;26543;51.976;4.616;2023-07-13T02:35:18;52585.66;;;-140.72;100.00
38197;BME280;26543;51.976;4.616;2023-07-13T02:37:43;52532.91;;;-140.72;100.00
38197;BME280;26543;51.976;4.616;2023-07-13T02:40:08;52551.16;;;-140.72;100.00
38197;BME280;26543;51.976;4.616;2023-07-13T02:42:34;52541.03;;;-140.72;100.00
38197;BME280;26543;51.976;4.616;2023-07-13T02:44:59;52549.13;;;-140.72;100.00
38197;BME280;26543;51.976;4.616;2023-07-13T02:47:25;52536.97;;;-140.72;100.00
38197;BME280;26543;51.976;4.616;2023-07-13T02:49:51;52551.16;;;-140.72;100.00
38197;BME280;26543;51.976;4.616;2023-07-13T02:52:18;52520.72;;;-140.72;100.00
38197;BME280;26543;51.976;4.616;2023-07-13T02:54:43;52589.72;;;-140.72;100.00
38197;BME280;26543;51.976;4.616;2023-07-13T02:57:08;52555.22;;;-140.72;100.00
38197;BME280;26543;51.976;4.616;2023-07-13T02:59:33;52534.94;;;-140.72;100.00
38197;BME280;26543;51.976;4.616;2023-07-13T03:02:00;52549.13;;;-140.72;100.00
38197;BME280;26543;51.976;4.616;2023-07-13T03:04:25;52553.19;;;-140.72;100.00
38197;BME280;26543;51.976;4.616;2023-07-13T03:06:50;52532.91;;;-140.72;100.00
38197;BME280;26543;51.976;4.616;2023-07-13T03:09:16;52567.41;;;-140.72;100.00
38197;BME280;26543;51.976;4.616;2023-07-13T03:11:41;52516.66;;;-140.72;100.00
38197;BME280;26543;51.976;4.616;2023-07-13T03:14:07;52547.09;;;-140.72;100.00
38197;BME280;26543;51.976;4.616;2023-07-13T03:16:33;52577.53;;;-140.72;100.00
38197;BME280;26543;51.976;4.616;2023-07-13T03:18:58;52571.47;;;-140.72;100.00
38197;BME280;26543;51.976;4.616;2023-07-13T03:21:23;52597.84;;;-140.72;100.00
38197;BME280;26543;51.976;4.616;2023-07-13T03:23:48;52587.69;;;-140.72;100.00
38197;BME280;26543;51.976;4.616;2023-07-13T03:26:18;52555.22;;;-140.72;100.00
38197;BME280;26543;51.976;4.616;2023-07-13T03:28:44;52547.09;;;-140.72;100.00
38197;BME280;26543;51.976;4.616;2023-07-13T03:31:13;52551.16;;;-140.72;100.00
38197;BME280;26543;51.976;4.616;2023-07-13T03:33:39;52545.06;;;-140.72;100.00
38197;BME280;26543;51.976;4.616;2023-07-13T03:36:05;52536.97;;;-140.72;100.00
38197;BME280;26543;51.976;4.616;2023-07-13T03:38:31;52504.50;;;-140.72;100.00
38197;BME280;26543;51.976;4.616;2023-07-13T03:40:56;52565.38;;;-140.72;100.00
38197;BME280;26543;51.976;4.616;2023-07-13T03:43:22;52555.22;;;-140.72;100.00
38197;BME280;26543;51.976;4.616;2023-07-13T03:45:47;52557.25;;;-140.72;100.00
38197;BME280;26543;51.976;4.616;2023-07-13T03:48:13;52555.22;;;-140.72;100.00
38197;BME280;26543;51.976;4.616;2023-07-13T03:50:38;52549.13;;;-140.72;100.00
38197;BME280;26543;51.976;4.616;2023-07-13T03:53:04;52500.44;;;-140.72;100.00
38197;BME280;26543;51.976;4.616;2023-07-13T03:55:29;52557.25;;;-140.72;100.00
38197;BME280;26543;51.976;4.616;2023-07-13T03:58:00;52593.78;;;-140.72;100.00
38197;BME280;26543;51.976;4.616;2023-07-13T04:00:25;52520.72;;;-140.72;100.00
38197;BME280;26543;51.976;4.616;2023-07-13T04:02:51;52539.00;;;-140.72;100.00
38197;BME280;26543;51.976;4.616;2023-07-13T04:05:16;52587.69;;;-140.72;100.00
38197;BME280;26543;51.976;4.616;2023-07-13T04:07:42;52573.50;;;-140.72;100.00
38197;BME280;26543;51.976;4.616;2023-07-13T04:10:07;52565.38;;;-140.72;100.00
38197;BME280;26543;51.976;4.616;2023-07-13T04:12:32;52571.47;;;-140.72;100.00
38197;BME280;26543;51.976;4.616;2023-07-13T04:17:46;52528.84;;;-140.72;100.00
38197;BME280;26543;51.976;4.616;2023-07-13T04:20:12;52524.78;;;-140.72;100.00
38197;BME280;26543;51.976;4.616;2023-07-13T04:22:37;52561.31;;;-140.72;100.00
38197;BME280;26543;51.976;4.616;2023-07-13T04:25:03;52532.91;;;-140.72;100.00
38197;BME280;26543;51.976;4.616;2023-07-13T04:27:30;52567.41;;;-140.72;100.00
38197;BME280;26543;51.976;4.616;2023-07-13T04:29:55;52589.72;;;-140.72;100.00
38197;BME280;26543;51.976;4.616;2023-07-13T04:32:20;52567.41;;;-140.72;100.00
38197;BME280;26543;51.976;4.616;2023-07-13T04:34:46;52530.88;;;-140.72;100.00
38197;BME280;26543;51.976;4.616;2023-07-13T04:37:11;52561.31;;;-140.72;100.00
38197;BME280;26543;51.976;4.616;2023-07-13T04:39:47;52504.50;;;-140.72;100.00
38197;BME280;26543;51.976;4.616;2023-07-13T04:42:12;52541.03;;;-140.72;100.00
38197;BME280;26543;51.976;4.616;2023-07-13T04:44:56;52561.31;;;-140.72;100.00
38197;BME280;26543;51.976;4.616;2023-07-13T04:47:21;52547.09;;;-140.72;100.00
38197;BME280;26543;51.976;4.616;2023-07-13T04:49:47;52559.28;;;-140.72;100.00
38197;BME280;26543;51.976;4.616;2023-07-13T04:52:12;52545.06;;;-140.72;100.00
38197;BME280;26543;51.976;4.616;2023-07-13T04:54:38;52563.34;;;-140.72;100.00
38197;BME280;26543;51.976;4.616;2023-07-13T04:57:04;52573.50;;;-140.72;100.00
38197;BME280;26543;51.976;4.616;2023-07-13T04:59:41;52536.97;;;-140.72;100.00
38197;BME280;26543;51.976;4.616;2023-07-13T05:02:06;52553.19;;;-140.72;100.00
38197;BME280;26543;51.976;4.616;2023-07-13T05:04:32;52539.00;;;-140.72;100.00
38197;BME280;26543;51.976;4.616;2023-07-13T05:06:57;52492.31;;;-140.72;100.00
38197;BME280;26543;51.976;4.616;2023-07-13T05:09:22;52494.34;;;-140.72;100.00
38197;BME280;26543;51.976;4.616;2023-07-13T05:11:48;52506.53;;;-140.72;100.00
38197;BME280;26543;51.976;4.616;2023-07-13T05:14:13;52508.56;;;-140.72;100.00
38197;BME280;26543;51.976;4.616;2023-07-13T05:16:38;52461.88;;;-140.72;100.00
38197;BME280;26543;51.976;4.616;2023-07-13T05:19:04;52498.41;;;-140.72;100.00
38197;BME280;26543;51.976;4.616;2023-07-13T05:21:30;52455.78;;;-140.72;100.00
38197;BME280;26543;51.976;4.616;2023-07-13T05:23:55;52472.03;;;-140.72;100.00
38197;BME280;26543;51.976;4.616;2023-07-13T05:26:21;52476.09;;;-140.72;100.00
38197;BME280;26543;51.976;4.616;2023-07-13T05:28:46;52472.03;;;-140.72;100.00
38197;BME280;26543;51.976;4.616;2023-07-13T05:31:13;52504.50;;;-140.72;100.00
38197;BME280;26543;51.976;4.616;2023-07-13T05:33:39;52484.19;;;-140.72;100.00
38197;BME280;26543;51.976;4.616;2023-07-13T05:36:04;52524.78;;;-140.72;100.00
38197;BME280;26543;51.976;4.616;2023-07-13T05:38:32;52500.44;;;-140.72;100.00
38197;BME280;26543;51.976;4.616;2023-07-13T05:40:57;52524.78;;;-140.72;100.00
38197;BME280;26543;51.976;4.616;2023-07-13T05:43:22;52465.94;;;-140.72;100.00
38197;BME280;26543;51.976;4.616;2023-07-13T05:45:48;52486.22;;;-140.72;100.00
38197;BME280;26543;51.976;4.616;2023-07-13T05:48:14;52463.91;;;-140.72;100.00
38197;BME280;26543;51.976;4.616;2023-07-13T05:50:42;52470.00;;;-140.72;100.00
38197;BME280;26543;51.976;4.616;2023-07-13T05:53:07;52467.97;;;-140.72;100.00
38197;BME280;26543;51.976;4.616;2023-07-13T05:55:33;52457.81;;;-140.72;100.00
38197;BME280;26543;51.976;4.616;2023-07-13T05:57:59;52504.50;;;-140.72;100.00
38197;BME280;26543;51.976;4.616;2023-07-13T06:00:25;52482.16;;;-140.72;100.00
38197;BME280;26543;51.976;4.616;2023-07-13T06:02:50;52484.19;;;-140.72;100.00
38197;BME280;26543;51.976;4.616;2023-07-13T06:05:15;52516.66;;;-140.72;100.00
38197;BME280;26543;51.976;4.616;2023-07-13T06:07:41;52541.03;;;-140.72;100.00
38197;BME280;26543;51.976;4.616;2023-07-13T06:10:07;52545.06;;;-140.72;100.00
38197;BME280;26543;51.976;4.616;2023-07-13T06:12:32;52561.31;;;-140.72;100.00
38197;BME280;26543;51.976;4.616;2023-07-13T06:14:57;52585.66;;;-140.72;100.00
38197;BME280;26543;51.976;4.616;2023-07-13T06:17:23;52589.72;;;-140.72;100.00
38197;BME280;26543;51.976;4.616;2023-07-13T06:19:48;52573.50;;;-140.72;100.00
38197;BME280;26543;51.976;4.616;2023-07-13T06:22:13;52573.50;;;-140.72;100.00
38197;BME280;26543;51.976;4.616;2023-07-13T06:24:38;52565.38;;;-140.72;100.00
38197;BME280;26543;51.976;4.616;2023-07-13T06:27:04;52575.50;;;-140.72;100.00
38197;BME280;26543;51.976;4.616;2023-07-13T06:29:29;52577.53;;;-140.72;100.00
38197;BME280;26543;51.976;4.616;2023-07-13T06:31:55;52583.63;;;-140.72;100.00
38197;BME280;26543;51.976;4.616;2023-07-13T06:34:20;52573.50;;;-140.72;100.00
38197;BME280;26543;51.976;4.616;2023-07-13T06:36:45;52573.50;;;-140.72;100.00
38197;BME280;26543;51.976;4.616;2023-07-13T06:39:10;52597.84;;;-140.72;100.00
38197;BME280;26543;51.976;4.616;2023-07-13T06:41:36;52597.84;;;-140.72;100.00
38197;BME280;26543;51.976;4.616;2023-07-13T06:44:01;52601.91;;;-140.72;100.00
38197;BME280;26543;51.976;4.616;2023-07-13T06:46:28;52567.41;;;-140.72;100.00
38197;BME280;26543;51.976;4.616;2023-07-13T06:48:53;52565.38;;;-140.72;100.00
38197;BME280;26543;51.976;4.616;2023-07-13T06:51:19;52563.34;;;-140.72;100.00
38197;BME280;26543;51.976;4.616;2023-07-13T06:53:44;52526.81;;;-140.72;100.00
38197;BME280;26543;51.976;4.616;2023-07-13T06:56:10;52549.13;;;-140.72;100.00
38197;BME280;26543;51.976;4.616;2023-07-13T06:58:36;52597.84;;;-140.72;100.00
38197;BME280;26543;51.976;4.616;2023-07-13T07:01:01;52532.91;;;-140.72;100.00
38197;BME280;26543;51.976;4.616;2023-07-13T07:03:27;52532.91;;;-140.72;100.00
38197;BME280;26543;51.976;4.616;2023-07-13T07:05:52;52494.34;;;-140.72;100.00
38197;BME280;26543;51.976;4.616;2023-07-13T07:08:19;52520.72;;;-140.72;100.00
38197;BME280;26543;51.976;4.616;2023-07-13T07:10:51;52490.28;;;-140.72;100.00
38197;BME280;26543;51.976;4.616;2023-07-13T07:13:18;52492.31;;;-140.72;100.00
38197;BME280;26543;51.976;4.616;2023-07-13T07:15:44;52457.81;;;-140.72;100.00
38197;BME280;26543;51.976;4.616;2023-07-13T07:18:09;52520.72;;;-140.72;100.00
38197;BME280;26543;51.976;4.616;2023-07-13T07:20:34;52508.56;;;-140.72;100.00
38197;BME280;26543;51.976;4.616;2023-07-13T07:23:00;52474.06;;;-140.72;100.00
38197;BME280;26543;51.976;4.616;2023-07-13T07:25:25;52437.53;;;-140.72;100.00
38197;BME280;26543;51.976;4.616;2023-07-13T07:27:50;52449.72;;;-140.72;100.00
38197;BME280;26543;51.976;4.616;2023-07-13T07:30:15;52476.09;;;-140.72;100.00
38197;BME280;26543;51.976;4.616;2023-07-13T07:32:41;52490.28;;;-140.72;100.00
38197;BME280;26543;51.976;4.616;2023-07-13T07:35:07;52478.13;;;-140.72;100.00
38197;BME280;26543;51.976;4.616;2023-07-13T07:37:32;52486.22;;;-140.72;100.00
38197;BME280;26543;51.976;4.616;2023-07-13T07:39:57;52463.91;;;-140.72;100.00
38197;BME280;26543;51.976;4.616;2023-07-13T07:42:24;52530.88;;;-140.72;100.00
38197;BME280;26543;51.976;4.616;2023-07-13T07:44:49;52536.97;;;-140.72;100.00
38197;BME280;26543;51.976;4.616;2023-07-13T07:47:14;52547.09;;;-140.72;100.00
38197;BME280;26543;51.976;4.616;2023-07-13T07:49:40;52500.44;;;-140.72;100.00
38197;BME280;26543;51.976;4.616;2023-07-13T07:52:05;52498.41;;;-140.72;100.00
38197;BME280;26543;51.976;4.616;2023-07-13T07:54:31;52500.44;;;-140.72;100.00
38197;BME280;26543;51.976;4.616;2023-07-13T07:56:56;52463.91;;;-140.72;100.00
38197;BME280;26543;51.976;4.616;2023-07-13T07:59:21;52484.19;;;-140.72;100.00
38197;BME280;26543;51.976;4.616;2023-07-13T08:01:47;52500.44;;;-140.72;100.00
38197;BME280;26543;51.976;4.616;2023-07-13T08:04:15;52433.47;;;-140.72;100.00
38197;BME280;26543;51.976;4.616;2023-07-13T08:06:40;52467.97;;;-140.72;100.00
38197;BME280;26543;51.976;4.616;2023-07-13T08:09:05;52407.09;;;-140.72;100.00
38197;BME280;26543;51.976;4.616;2023-07-13T08:11:31;52401.00;;;-140.72;100.00
38197;BME280;26543;51.976;4.616;2023-07-13T08:13:56;52431.44;;;-140.72;100.00
38197;BME280;26543;51.976;4.616;2023-07-13T08:16:22;52470.00;;;-140.72;100.00
38197;BME280;26543;51.976;4.616;2023-07-13T08:18:47;52423.31;;;-140.72;100.00
38197;BME280;26543;51.976;4.616;2023-07-13T08:21:13;52435.50;;;-140.72;100.00
38197;BME280;26543;51.976;4.616;2023-07-13T08:23:38;52409.13;;;-140.72;100.00
38197;BME280;26543;51.976;4.616;2023-07-13T08:26:03;52396.94;;;-140.72;100.00
38197;BME280;26543;51.976;4.616;2023-07-13T08:28:29;52388.84;;;-140.72;100.00
38197;BME280;26543;51.976;4.616;2023-07-13T08:30:59;52407.09;;;-140.72;100.00
38197;BME280;26543;51.976;4.616;2023-07-13T08:33:25;52390.84;;;-140.72;100.00
38197;BME280;26543;51.976;4.616;2023-07-13T08:35:50;52423.31;;;-140.72;100.00
38197;BME280;26543;51.976;4.616;2023-07-13T08:38:16;52465.94;;;-140.72;100.00
38197;BME280;26543;51.976;4.616;2023-07-13T08:40:42;52530.88;;;-140.72;100.00
38197;BME280;26543;51.976;4.616;2023-07-13T08:43:18;52547.09;;;-140.72;100.00
38197;BME280;26543;51.976;4.616;2023-07-13T08:46:02;52506.53;;;-140.72;100.00
38197;BME280;26543;51.976;4.616;2023-07-13T08:48:37;52508.56;;;-140.72;100.00
38197;BME280;26543;51.976;4.616;2023-07-13T08:51:52;52561.31;;;-140.72;100.00
38197;BME280;26543;51.976;4.616;2023-07-13T08:53:51;52587.69;;;-140.72;100.00
38197;BME280;26543;51.976;4.616;2023-07-13T08:56:20;52536.97;;;-140.72;100.00
38197;BME280;26543;51.976;4.616;2023-07-13T08:58:47;52522.75;;;-140.72;100.00
38197;BME280;26543;51.976;4.616;2023-07-13T09:01:20;52536.97;;;-140.72;100.00
38197;BME280;26543;51.976;4.616;2023-07-13T09:06:17;52423.31;;;-140.72;100.00
38197;BME280;26543;51.976;4.616;2023-07-13T09:16:16;52374.63;;;-140.72;100.00
38197;BME280;26543;51.976;4.616;2023-07-13T09:18:42;52429.41;;;-140.72;100.00
38197;BME280;26543;51.976;4.616;2023-07-13T09:21:17;52480.16;;;-140.72;100.00
38197;BME280;26543;51.976;4.616;2023-07-13T09:23:43;52496.38;;;-140.72;100.00
38197;BME280;26543;51.976;4.616;2023-07-13T09:26:19;52528.84;;;-140.72;100.00
38197;BME280;26543;51.976;4.616;2023-07-13T09:28:46;52498.41;;;-140.72;100.00
38197;BME280;26543;51.976;4.616;2023-07-13T09:31:16;52480.16;;;-140.72;100.00
38197;BME280;26543;51.976;4.616;2023-07-13T09:33:43;52437.53;;;-140.72;100.00
38197;BME280;26543;51.976;4.616;2023-07-13T09:36:22;52484.19;;;-140.72;100.00
38197;BME280;26543;51.976;4.616;2023-07-13T09:38:49;52486.22;;;-140.72;100.00
38197;BME280;26543;51.976;4.616;2023-07-13T09:41:25;52508.56;;;-140.72;100.00
38197;BME280;26543;51.976;4.616;2023-07-13T09:46:34;52506.53;;;-140.72;100.00
38197;BME280;26543;51.976;4.616;2023-07-13T09:48:59;52476.09;;;-140.72;100.00
38197;BME280;26543;51.976;4.616;2023-07-13T09:51:25;52449.72;;;-140.72;100.00
38197;BME280;26543;51.976;4.616;2023-07-13T09:53:50;52451.72;;;-140.72;100.00
38197;BME280;26543;51.976;4.616;2023-07-13T09:56:20;52431.44;;;-140.72;100.00
38197;BME280;26543;51.976;4.616;2023-07-13T09:58:45;52415.22;;;-140.72;100.00
38197;BME280;26543;51.976;4.616;2023-07-13T10:01:10;52354.34;;;-140.72;100.00
38197;BME280;26543;51.976;4.616;2023-07-13T10:03:36;52309.69;;;-140.72;100.00
38197;BME280;26543;51.976;4.616;2023-07-13T10:06:11;52354.34;;;-140.72;100.00
38197;BME280;26543;51.976;4.616;2023-07-13T10:08:37;52358.41;;;-140.72;100.00
38197;BME280;26543;51.976;4.616;2023-07-13T10:11:36;52407.09;;;-140.72;100.00
38197;BME280;26543;51.976;4.616;2023-07-13T10:13:59;52398.97;;;-140.72;100.00
38197;BME280;26543;51.976;4.616;2023-07-13T10:16:27;52409.13;;;-140.72;100.00
38197;BME280;26543;51.976;4.616;2023-07-13T10:18:58;52427.38;;;-140.72;100.00
38197;BME280;26543;51.976;4.616;2023-07-13T10:21:27;52356.38;;;-140.72;100.00
38197;BME280;26543;51.976;4.616;2023-07-13T10:23:58;52293.47;;;-140.72;100.00
38197;BME280;26543;51.976;4.616;2023-07-13T10:26:26;52228.53;;;-140.72;100.00
38197;BME280;26543;51.976;4.616;2023-07-13T10:28:56;52204.19;;;-140.72;43.67
38197;BME280;26543;51.976;4.616;2023-07-13T10:31:22;52220.41;;;-140.72;7.28
38197;BME280;26543;51.976;4.616;2023-07-13T10:33:48;52169.69;;;-140.72;0.00
38197;BME280;26543;51.976;4.616;2023-07-13T10:36:16;52196.06;;;-140.72;0.00
38197;BME280;26543;51.976;4.616;2023-07-13T10:38:42;52145.34;;;-140.72;0.00
38197;BME280;26543;51.976;4.616;2023-07-13T10:41:12;52202.16;;;-140.72;0.00
38197;BME280;26543;51.976;4.616;2023-07-13T10:43:41;52305.63;;;-140.72;0.00
38197;BME280;26543;51.976;4.616;2023-07-13T10:46:08;52386.81;;;-140.72;0.00
38197;BME280;26543;51.976;4.616;2023-07-13T10:48:35;52228.53;;;-140.72;0.00
38197;BME280;26543;51.976;4.616;2023-07-13T10:51:02;52169.69;;;-140.72;0.00
38197;BME280;26543;51.976;4.616;2023-07-13T10:53:29;52104.75;;;-140.72;0.00
38197;BME280;26543;51.976;4.616;2023-07-13T10:58:43;52131.16;;;-140.72;0.00
38197;BME280;26543;51.976;4.616;2023-07-13T11:03:36;52269.13;;;-140.72;0.00
38197;BME280;26543;51.976;4.616;2023-07-13T11:06:07;52192.00;;;-140.72;0.00
38197;BME280;26543;51.976;4.616;2023-07-13T11:08:35;52192.00;;;-140.72;0.00
38197;BME280;26543;51.976;4.616;2023-07-13T11:11:02;52139.25;;;-140.72;0.00
38197;BME280;26543;51.976;4.616;2023-07-13T11:15:59;52269.13;;;-140.72;0.00
38197;BME280;26543;51.976;4.616;2023-07-13T11:18:24;52222.44;;;-140.72;0.00
38197;BME280;26543;51.976;4.616;2023-07-13T11:20:50;52131.16;;;-140.72;0.00
38197;BME280;26543;51.976;4.616;2023-07-13T11:25:42;52070.28;;;-140.72;0.00
38197;BME280;26543;51.976;4.616;2023-07-13T11:31:18;52293.47;;;-140.72;0.00
38197;BME280;26543;51.976;4.616;2023-07-13T11:33:25;52242.75;;;-140.72;0.00
38197;BME280;26543;51.976;4.616;2023-07-13T11:36:06;52159.56;;;-140.72;0.00
38197;BME280;26543;51.976;4.616;2023-07-13T11:38:39;52039.84;;;-140.72;0.00
38197;BME280;26543;51.976;4.616;2023-07-13T11:41:06;52066.22;;;-140.72;0.00
38197;BME280;26543;51.976;4.616;2023-07-13T11:43:32;52003.31;;;-140.72;0.00
38197;BME280;26543;51.976;4.616;2023-07-13T11:46:11;52145.34;;;-140.72;0.00
38197;BME280;26543;51.976;4.616;2023-07-13T11:48:37;52098.69;;;-140.72;0.00
38197;BME280;26543;51.976;4.616;2023-07-13T11:51:03;52031.72;;;-140.72;0.00
38197;BME280;26543;51.976;4.616;2023-07-13T11:53:33;52129.13;;;-140.72;0.00
38197;BME280;26543;51.976;4.616;2023-07-13T11:56:01;52100.72;;;-140.72;0.00
38197;BME280;26543;51.976;4.616;2023-07-13T11:58:26;52127.09;;;-140.72;0.00
38197;BME280;26543;51.976;4.616;2023-07-13T12:00:53;52139.25;;;-140.72;0.00
38197;BME280;26543;51.976;4.616;2023-07-13T12:03:21;52074.34;;;-140.72;0.00
38197;BME280;26543;51.976;4.616;2023-07-13T12:06:02;52200.13;;;-140.72;0.00
38197;BME280;26543;51.976;4.616;2023-07-13T12:08:28;52084.47;;;-140.72;0.00
38197;BME280;26543;51.976;4.616;2023-07-13T12:10:58;52066.22;;;-140.72;0.00
38197;BME280;26543;51.976;4.616;2023-07-13T12:13:24;52049.97;;;-140.72;0.00
38197;BME280;26543;51.976;4.616;2023-07-13T12:15:51;52021.56;;;-140.72;0.00
38197;BME280;26543;51.976;4.616;2023-07-13T12:18:20;51999.25;;;-140.72;0.00
38197;BME280;26543;51.976;4.616;2023-07-13T12:20:46;51989.13;;;-140.72;0.00
38197;BME280;26543;51.976;4.616;2023-07-13T12:23:33;52025.63;;;-140.72;0.00
38197;BME280;26543;51.976;4.616;2023-07-13T12:25:58;52007.38;;;-140.72;0.00
38197;BME280;26543;51.976;4.616;2023-07-13T12:28:32;52005.34;;;-140.72;0.00
38197;BME280;26543;51.976;4.616;2023-07-13T12:30:58;51930.28;;;-140.72;0.00
38197;BME280;26543;51.976;4.616;2023-07-13T12:33:24;51962.75;;;-140.72;0.00
38197;BME280;26543;51.976;4.616;2023-07-13T12:35:51;51954.63;;;-140.72;0.00
38197;BME280;26543;51.976;4.616;2023-07-13T12:38:17;51952.59;;;-140.72;0.00
38197;BME280;26543;51.976;4.616;2023-07-13T12:40:43;51983.03;;;-140.72;0.00
38197;BME280;26543;51.976;4.616;2023-07-13T12:43:12;52011.44;;;-140.72;0.00
38197;BME280;26543;51.976;4.616;2023-07-13T12:45:38;52017.53;;;-140.72;0.00
38197;BME280;26543;51.976;4.616;2023-07-13T12:48:05;52045.94;;;-140.72;0.00
38197;BME280;26543;51.976;4.616;2023-07-13T12:50:36;51960.72;;;-140.72;0.00
38197;BME280;26543;51.976;4.616;2023-07-13T12:53:03;51956.66;;;-140.72;0.00
38197;BME280;26543;51.976;4.616;2023-07-13T12:55:29;52021.56;;;-140.72;0.00
38197;BME280;26543;51.976;4.616;2023-07-13T12:57:58;51997.22;;;-140.72;0.00
38197;BME280;26543;51.976;4.616;2023-07-13T13:00:33;51972.88;;;-140.72;0.00
38197;BME280;26543;51.976;4.616;2023-07-13T13:03:05;51976.94;;;-140.72;0.00